sensor_id;sensor_type;location;lat;lon;timestamp;P1;durP1;ratioP1;P2;durP2;ratioP2
209;SDS011;90;48.810;9.120;2022-08-23T00:02:06;5.90;;;5.60;;
209;SDS011;90;48.810;9.120;2022-08-23T00:04:37;5.43;;;5.03;;
209;SDS011;90;48.810;9.120;2022-08-23T00:07:13;6.57;;;5.90;;
209;SDS011;90;48.810;9.120;2022-08-23T00:09:41;7.10;;;6.50;;
209;SDS011;90;48.810;9.120;2022-08-23T00:12:11;7.27;;;6.20;;
209;SDS011;90;48.810;9.120;2022-08-23T00:14:41;6.57;;;5.47;;
209;SDS011;90;48.810;9.120;2022-08-23T00:17:11;5.50;;;5.20;;
209;SDS011;90;48.810;9.120;2022-08-23T00:19:40;5.87;;;5.57;;
209;SDS011;90;48.810;9.120;2022-08-23T00:22:08;8.70;;;5.73;;
209;SDS011;90;48.810;9.120;2022-08-23T00:24:36;7.43;;;4.80;;
209;SDS011;90;48.810;9.120;2022-08-23T00:27:05;6.67;;;5.83;;
209;SDS011;90;48.810;9.120;2022-08-23T00:29:36;8.80;;;5.97;;
209;SDS011;90;48.810;9.120;2022-08-23T00:32:06;7.17;;;5.53;;
209;SDS011;90;48.810;9.120;2022-08-23T00:34:34;5.70;;;5.40;;
209;SDS011;90;48.810;9.120;2022-08-23T00:37:03;6.20;;;5.90;;
209;SDS011;90;48.810;9.120;2022-08-23T00:39:31;8.33;;;5.70;;
209;SDS011;90;48.810;9.120;2022-08-23T00:41:59;6.00;;;5.53;;
209;SDS011;90;48.810;9.120;2022-08-23T00:44:51;5.77;;;5.50;;
209;SDS011;90;48.810;9.120;2022-08-23T00:47:36;6.50;;;5.50;;
209;SDS011;90;48.810;9.120;2022-08-23T00:50:10;5.40;;;5.10;;
209;SDS011;90;48.810;9.120;2022-08-23T00:52:45;7.03;;;6.03;;
209;SDS011;90;48.810;9.120;2022-08-23T00:55:18;6.90;;;5.60;;
209;SDS011;90;48.810;9.120;2022-08-23T00:57:46;6.10;;;5.80;;
209;SDS011;90;48.810;9.120;2022-08-23T01:00:13;6.17;;;5.87;;
209;SDS011;90;48.810;9.120;2022-08-23T01:02:41;7.00;;;6.33;;
209;SDS011;90;48.810;9.120;2022-08-23T01:05:10;6.97;;;5.90;;
209;SDS011;90;48.810;9.120;2022-08-23T01:07:40;5.83;;;5.43;;
209;SDS011;90;48.810;9.120;2022-08-23T01:10:15;7.43;;;5.97;;
209;SDS011;90;48.810;9.120;2022-08-23T01:12:50;6.60;;;6.20;;
209;SDS011;90;48.810;9.120;2022-08-23T01:15:22;8.90;;;6.40;;
209;SDS011;90;48.810;9.120;2022-08-23T01:17:53;7.50;;;5.37;;
209;SDS011;90;48.810;9.120;2022-08-23T01:20:27;7.40;;;5.33;;
209;SDS011;90;48.810;9.120;2022-08-23T01:23:03;7.30;;;6.37;;
209;SDS011;90;48.810;9.120;2022-08-23T01:25:36;5.40;;;5.10;;
209;SDS011;90;48.810;9.120;2022-08-23T01:28:04;5.43;;;4.97;;
209;SDS011;90;48.810;9.120;2022-08-23T01:30:31;7.27;;;6.10;;
209;SDS011;90;48.810;9.120;2022-08-23T01:33:00;7.57;;;6.43;;
209;SDS011;90;48.810;9.120;2022-08-23T01:35:31;5.83;;;5.53;;
209;SDS011;90;48.810;9.120;2022-08-23T01:38:02;5.80;;;5.50;;
209;SDS011;90;48.810;9.120;2022-08-23T01:40:29;5.90;;;5.60;;
209;SDS011;90;48.810;9.120;2022-08-23T01:42:58;9.93;;;5.70;;
209;SDS011;90;48.810;9.120;2022-08-23T01:45:26;7.63;;;5.30;;
209;SDS011;90;48.810;9.120;2022-08-23T01:47:54;7.57;;;5.63;;
209;SDS011;90;48.810;9.120;2022-08-23T01:50:22;8.80;;;5.80;;
209;SDS011;90;48.810;9.120;2022-08-23T01:52:50;7.10;;;5.60;;
209;SDS011;90;48.810;9.120;2022-08-23T01:55:18;8.90;;;5.20;;
209;SDS011;90;48.810;9.120;2022-08-23T01:57:46;5.50;;;5.20;;
209;SDS011;90;48.810;9.120;2022-08-23T02:00:18;5.60;;;5.40;;
209;SDS011;90;48.810;9.120;2022-08-23T02:02:47;5.97;;;5.20;;
209;SDS011;90;48.810;9.120;2022-08-23T02:05:14;9.50;;;6.00;;
209;SDS011;90;48.810;9.120;2022-08-23T02:07:43;6.70;;;6.30;;
209;SDS011;90;48.810;9.120;2022-08-23T02:10:10;9.73;;;5.90;;
209;SDS011;90;48.810;9.120;2022-08-23T02:12:39;6.07;;;5.73;;
209;SDS011;90;48.810;9.120;2022-08-23T02:15:07;6.80;;;5.27;;
209;SDS011;90;48.810;9.120;2022-08-23T02:17:36;5.80;;;5.40;;
209;SDS011;90;48.810;9.120;2022-08-23T02:20:03;7.77;;;6.00;;
209;SDS011;90;48.810;9.120;2022-08-23T02:22:31;8.73;;;5.97;;
209;SDS011;90;48.810;9.120;2022-08-23T02:24:59;5.90;;;5.63;;
209;SDS011;90;48.810;9.120;2022-08-23T02:27:26;5.57;;;5.27;;
209;SDS011;90;48.810;9.120;2022-08-23T02:29:53;7.43;;;5.80;;
209;SDS011;90;48.810;9.120;2022-08-23T02:32:20;5.83;;;5.53;;
209;SDS011;90;48.810;9.120;2022-08-23T02:34:49;6.80;;;6.07;;
209;SDS011;90;48.810;9.120;2022-08-23T02:37:17;7.37;;;5.87;;
209;SDS011;90;48.810;9.120;2022-08-23T02:39:44;6.00;;;5.70;;
209;SDS011;90;48.810;9.120;2022-08-23T02:42:12;7.50;;;6.03;;
209;SDS011;90;48.810;9.120;2022-08-23T02:44:40;6.67;;;6.27;;
209;SDS011;90;48.810;9.120;2022-08-23T02:47:07;6.13;;;5.87;;
209;SDS011;90;48.810;9.120;2022-08-23T02:49:36;7.47;;;6.30;;
209;SDS011;90;48.810;9.120;2022-08-23T02:52:05;9.30;;;6.80;;
209;SDS011;90;48.810;9.120;2022-08-23T02:54:33;6.35;;;5.93;;
209;SDS011;90;48.810;9.120;2022-08-23T02:57:01;6.67;;;6.27;;
209;SDS011;90;48.810;9.120;2022-08-23T02:59:28;6.80;;;5.60;;
209;SDS011;90;48.810;9.120;2022-08-23T03:01:55;8.90;;;6.17;;
209;SDS011;90;48.810;9.120;2022-08-23T03:04:22;6.00;;;5.60;;
209;SDS011;90;48.810;9.120;2022-08-23T03:06:49;7.30;;;5.90;;
209;SDS011;90;48.810;9.120;2022-08-23T03:09:18;7.60;;;6.40;;
209;SDS011;90;48.810;9.120;2022-08-23T03:11:45;8.13;;;6.27;;
209;SDS011;90;48.810;9.120;2022-08-23T03:14:13;6.27;;;5.93;;
209;SDS011;90;48.810;9.120;2022-08-23T03:16:41;6.40;;;6.00;;
209;SDS011;90;48.810;9.120;2022-08-23T03:19:08;9.40;;;6.77;;
209;SDS011;90;48.810;9.120;2022-08-23T03:21:35;6.13;;;5.80;;
209;SDS011;90;48.810;9.120;2022-08-23T03:24:03;6.17;;;5.90;;
209;SDS011;90;48.810;9.120;2022-08-23T03:26:32;6.60;;;6.20;;
209;SDS011;90;48.810;9.120;2022-08-23T03:29:01;6.47;;;6.07;;
209;SDS011;90;48.810;9.120;2022-08-23T03:31:29;6.50;;;6.10;;
209;SDS011;90;48.810;9.120;2022-08-23T03:33:56;10.60;;;5.73;;
209;SDS011;90;48.810;9.120;2022-08-23T03:36:23;8.07;;;5.73;;
209;SDS011;90;48.810;9.120;2022-08-23T03:38:50;6.27;;;5.93;;
209;SDS011;90;48.810;9.120;2022-08-23T03:41:18;7.00;;;5.80;;
209;SDS011;90;48.810;9.120;2022-08-23T03:43:46;6.10;;;5.80;;
209;SDS011;90;48.810;9.120;2022-08-23T03:46:13;13.57;;;5.80;;
209;SDS011;90;48.810;9.120;2022-08-23T03:48:47;6.80;;;5.77;;
209;SDS011;90;48.810;9.120;2022-08-23T03:51:16;6.00;;;5.77;;
209;SDS011;90;48.810;9.120;2022-08-23T03:53:43;6.20;;;5.30;;
209;SDS011;90;48.810;9.120;2022-08-23T03:56:19;5.93;;;5.63;;
209;SDS011;90;48.810;9.120;2022-08-23T03:58:48;6.80;;;5.70;;
209;SDS011;90;48.810;9.120;2022-08-23T04:01:16;7.00;;;5.80;;
209;SDS011;90;48.810;9.120;2022-08-23T04:03:43;10.23;;;6.57;;
209;SDS011;90;48.810;9.120;2022-08-23T04:06:11;6.10;;;5.30;;
209;SDS011;90;48.810;9.120;2022-08-23T04:08:39;8.37;;;5.93;;
209;SDS011;90;48.810;9.120;2022-08-23T04:11:07;9.03;;;5.70;;
209;SDS011;90;48.810;9.120;2022-08-23T04:13:34;6.50;;;6.10;;
209;SDS011;90;48.810;9.120;2022-08-23T04:16:04;8.80;;;5.87;;
209;SDS011;90;48.810;9.120;2022-08-23T04:18:33;7.53;;;5.70;;
209;SDS011;90;48.810;9.120;2022-08-23T04:21:02;6.20;;;5.90;;
209;SDS011;90;48.810;9.120;2022-08-23T04:23:34;5.67;;;5.40;;
209;SDS011;90;48.810;9.120;2022-08-23T04:26:02;7.40;;;6.23;;
209;SDS011;90;48.810;9.120;2022-08-23T04:28:31;10.33;;;5.93;;
209;SDS011;90;48.810;9.120;2022-08-23T04:31:00;8.83;;;6.33;;
209;SDS011;90;48.810;9.120;2022-08-23T04:33:30;6.40;;;5.87;;
209;SDS011;90;48.810;9.120;2022-08-23T04:35:58;7.23;;;5.90;;
209;SDS011;90;48.810;9.120;2022-08-23T04:38:26;10.67;;;6.40;;
209;SDS011;90;48.810;9.120;2022-08-23T04:40:53;8.87;;;6.07;;
209;SDS011;90;48.810;9.120;2022-08-23T04:43:39;7.22;;;5.80;;
209;SDS011;90;48.810;9.120;2022-08-23T04:46:06;7.80;;;6.40;;
209;SDS011;90;48.810;9.120;2022-08-23T04:48:35;7.10;;;5.90;;
209;SDS011;90;48.810;9.120;2022-08-23T04:51:02;8.50;;;6.63;;
209;SDS011;90;48.810;9.120;2022-08-23T04:53:30;11.70;;;6.87;;
209;SDS011;90;48.810;9.120;2022-08-23T04:56:02;7.10;;;6.70;;
209;SDS011;90;48.810;9.120;2022-08-23T04:58:30;10.37;;;6.33;;
209;SDS011;90;48.810;9.120;2022-08-23T05:00:59;13.83;;;7.00;;
209;SDS011;90;48.810;9.120;2022-08-23T05:03:27;7.70;;;6.20;;
209;SDS011;90;48.810;9.120;2022-08-23T05:05:57;8.43;;;6.27;;
209;SDS011;90;48.810;9.120;2022-08-23T05:08:25;11.13;;;7.20;;
209;SDS011;90;48.810;9.120;2022-08-23T05:10:53;11.20;;;7.10;;
209;SDS011;90;48.810;9.120;2022-08-23T05:13:20;6.93;;;6.53;;
209;SDS011;90;48.810;9.120;2022-08-23T05:15:49;8.70;;;6.90;;
209;SDS011;90;48.810;9.120;2022-08-23T05:18:18;9.40;;;6.10;;
209;SDS011;90;48.810;9.120;2022-08-23T05:20:45;7.80;;;6.60;;
209;SDS011;90;48.810;9.120;2022-08-23T05:23:14;9.90;;;7.27;;
209;SDS011;90;48.810;9.120;2022-08-23T05:25:41;11.00;;;6.90;;
209;SDS011;90;48.810;9.120;2022-08-23T05:28:15;8.60;;;6.00;;
209;SDS011;90;48.810;9.120;2022-08-23T05:30:43;9.20;;;6.13;;
209;SDS011;90;48.810;9.120;2022-08-23T05:33:19;14.90;;;6.20;;
209;SDS011;90;48.810;9.120;2022-08-23T05:35:46;9.00;;;6.40;;
209;SDS011;90;48.810;9.120;2022-08-23T05:38:15;7.07;;;6.67;;
209;SDS011;90;48.810;9.120;2022-08-23T05:40:43;7.13;;;6.77;;
209;SDS011;90;48.810;9.120;2022-08-23T05:43:10;8.43;;;6.60;;
209;SDS011;90;48.810;9.120;2022-08-23T05:45:37;7.93;;;6.20;;
209;SDS011;90;48.810;9.120;2022-08-23T05:48:04;9.70;;;5.80;;
209;SDS011;90;48.810;9.120;2022-08-23T05:50:32;7.60;;;6.47;;
209;SDS011;90;48.810;9.120;2022-08-23T05:53:01;9.13;;;5.90;;
209;SDS011;90;48.810;9.120;2022-08-23T05:55:30;9.13;;;5.93;;
209;SDS011;90;48.810;9.120;2022-08-23T05:57:58;7.82;;;6.22;;
209;SDS011;90;48.810;9.120;2022-08-23T06:00:25;5.97;;;5.67;;
209;SDS011;90;48.810;9.120;2022-08-23T06:02:52;10.00;;;6.53;;
209;SDS011;90;48.810;9.120;2022-08-23T06:05:20;6.73;;;6.00;;
209;SDS011;90;48.810;9.120;2022-08-23T06:07:47;12.53;;;6.40;;
209;SDS011;90;48.810;9.120;2022-08-23T06:10:14;7.17;;;6.43;;
209;SDS011;90;48.810;9.120;2022-08-23T06:12:45;7.03;;;6.63;;
209;SDS011;90;48.810;9.120;2022-08-23T06:15:12;6.63;;;6.23;;
209;SDS011;90;48.810;9.120;2022-08-23T06:17:39;8.07;;;6.10;;
209;SDS011;90;48.810;9.120;2022-08-23T06:20:07;7.90;;;6.20;;
209;SDS011;90;48.810;9.120;2022-08-23T06:22:34;11.90;;;6.17;;
209;SDS011;90;48.810;9.120;2022-08-23T06:25:02;7.20;;;5.90;;
209;SDS011;90;48.810;9.120;2022-08-23T06:27:29;8.03;;;7.00;;
209;SDS011;90;48.810;9.120;2022-08-23T06:29:57;8.47;;;6.43;;
209;SDS011;90;48.810;9.120;2022-08-23T06:32:24;7.37;;;6.10;;
209;SDS011;90;48.810;9.120;2022-08-23T06:34:52;6.97;;;6.30;;
209;SDS011;90;48.810;9.120;2022-08-23T06:37:19;8.93;;;7.20;;
209;SDS011;90;48.810;9.120;2022-08-23T06:39:47;6.80;;;5.97;;
209;SDS011;90;48.810;9.120;2022-08-23T06:42:14;8.50;;;6.83;;
209;SDS011;90;48.810;9.120;2022-08-23T06:44:42;8.60;;;7.03;;
209;SDS011;90;48.810;9.120;2022-08-23T06:47:10;9.13;;;6.30;;
209;SDS011;90;48.810;9.120;2022-08-23T06:49:38;8.70;;;6.77;;
209;SDS011;90;48.810;9.120;2022-08-23T06:52:05;6.43;;;5.97;;
209;SDS011;90;48.810;9.120;2022-08-23T06:54:33;6.53;;;6.13;;
209;SDS011;90;48.810;9.120;2022-08-23T06:57:01;7.53;;;6.63;;
209;SDS011;90;48.810;9.120;2022-08-23T06:59:29;6.80;;;6.03;;
209;SDS011;90;48.810;9.120;2022-08-23T07:01:57;7.20;;;6.13;;
209;SDS011;90;48.810;9.120;2022-08-23T07:04:27;17.73;;;7.70;;
209;SDS011;90;48.810;9.120;2022-08-23T07:06:56;9.43;;;7.00;;
209;SDS011;90;48.810;9.120;2022-08-23T07:09:25;6.70;;;6.30;;
209;SDS011;90;48.810;9.120;2022-08-23T07:11:53;9.10;;;7.13;;
209;SDS011;90;48.810;9.120;2022-08-23T07:14:20;9.60;;;7.33;;
209;SDS011;90;48.810;9.120;2022-08-23T07:16:49;8.93;;;6.97;;
209;SDS011;90;48.810;9.120;2022-08-23T07:19:19;14.87;;;7.33;;
209;SDS011;90;48.810;9.120;2022-08-23T07:21:50;11.70;;;7.00;;
209;SDS011;90;48.810;9.120;2022-08-23T07:24:18;8.70;;;6.27;;
209;SDS011;90;48.810;9.120;2022-08-23T07:26:46;20.90;;;7.57;;
209;SDS011;90;48.810;9.120;2022-08-23T07:29:16;7.43;;;6.87;;
209;SDS011;90;48.810;9.120;2022-08-23T07:31:45;11.17;;;7.87;;
209;SDS011;90;48.810;9.120;2022-08-23T07:34:14;9.07;;;7.20;;
209;SDS011;90;48.810;9.120;2022-08-23T07:36:42;10.23;;;7.67;;
209;SDS011;90;48.810;9.120;2022-08-23T07:39:13;8.57;;;6.40;;
209;SDS011;90;48.810;9.120;2022-08-23T07:41:40;11.57;;;7.57;;
209;SDS011;90;48.810;9.120;2022-08-23T07:44:08;9.03;;;7.30;;
209;SDS011;90;48.810;9.120;2022-08-23T07:46:37;10.77;;;7.60;;
209;SDS011;90;48.810;9.120;2022-08-23T07:49:06;14.30;;;6.70;;
209;SDS011;90;48.810;9.120;2022-08-23T07:51:36;10.90;;;6.30;;
209;SDS011;90;48.810;9.120;2022-08-23T07:54:05;7.50;;;6.97;;
209;SDS011;90;48.810;9.120;2022-08-23T07:56:36;10.73;;;8.13;;
209;SDS011;90;48.810;9.120;2022-08-23T07:59:03;7.20;;;6.63;;
209;SDS011;90;48.810;9.120;2022-08-23T08:01:31;7.50;;;6.83;;
209;SDS011;90;48.810;9.120;2022-08-23T08:04:02;7.13;;;6.30;;
209;SDS011;90;48.810;9.120;2022-08-23T08:06:30;7.90;;;6.20;;
209;SDS011;90;48.810;9.120;2022-08-23T08:08:59;9.73;;;7.60;;
209;SDS011;90;48.810;9.120;2022-08-23T08:11:28;8.70;;;6.60;;
209;SDS011;90;48.810;9.120;2022-08-23T08:13:57;12.03;;;7.40;;
209;SDS011;90;48.810;9.120;2022-08-23T08:16:25;18.03;;;7.37;;
209;SDS011;90;48.810;9.120;2022-08-23T08:18:55;8.27;;;7.47;;
209;SDS011;90;48.810;9.120;2022-08-23T08:21:23;9.80;;;6.43;;
209;SDS011;90;48.810;9.120;2022-08-23T08:23:52;11.57;;;7.70;;
209;SDS011;90;48.810;9.120;2022-08-23T08:26:23;13.27;;;8.20;;
209;SDS011;90;48.810;9.120;2022-08-23T08:28:51;44.63;;;8.10;;
209;SDS011;90;48.810;9.120;2022-08-23T08:31:21;9.00;;;7.43;;
209;SDS011;90;48.810;9.120;2022-08-23T08:33:50;11.57;;;8.13;;
209;SDS011;90;48.810;9.120;2022-08-23T08:36:31;12.70;;;8.60;;
209;SDS011;90;48.810;9.120;2022-08-23T08:39:00;10.00;;;7.60;;
209;SDS011;90;48.810;9.120;2022-08-23T08:41:33;10.87;;;7.70;;
209;SDS011;90;48.810;9.120;2022-08-23T08:44:12;11.17;;;8.10;;
209;SDS011;90;48.810;9.120;2022-08-23T08:46:50;10.00;;;7.67;;
209;SDS011;90;48.810;9.120;2022-08-23T08:49:23;9.70;;;6.67;;
209;SDS011;90;48.810;9.120;2022-08-23T08:51:59;8.23;;;6.60;;
209;SDS011;90;48.810;9.120;2022-08-23T08:54:30;14.30;;;6.03;;
209;SDS011;90;48.810;9.120;2022-08-23T08:56:58;7.20;;;6.13;;
209;SDS011;90;48.810;9.120;2022-08-23T08:59:39;8.23;;;6.83;;
209;SDS011;90;48.810;9.120;2022-08-23T09:02:15;8.20;;;6.93;;
209;SDS011;90;48.810;9.120;2022-08-23T09:04:44;6.77;;;6.37;;
209;SDS011;90;48.810;9.120;2022-08-23T09:07:14;6.13;;;5.83;;
209;SDS011;90;48.810;9.120;2022-08-23T09:09:57;7.30;;;6.20;;
209;SDS011;90;48.810;9.120;2022-08-23T09:12:37;8.70;;;6.33;;
209;SDS011;90;48.810;9.120;2022-08-23T09:15:14;8.50;;;5.90;;
209;SDS011;90;48.810;9.120;2022-08-23T09:17:50;5.70;;;5.40;;
209;SDS011;90;48.810;9.120;2022-08-23T09:20:19;9.57;;;6.10;;
209;SDS011;90;48.810;9.120;2022-08-23T09:22:49;7.50;;;6.83;;
209;SDS011;90;48.810;9.120;2022-08-23T09:25:22;6.80;;;6.30;;
209;SDS011;90;48.810;9.120;2022-08-23T09:27:49;11.53;;;6.20;;
209;SDS011;90;48.810;9.120;2022-08-23T09:30:17;9.97;;;6.63;;
209;SDS011;90;48.810;9.120;2022-08-23T09:32:46;6.90;;;5.93;;
209;SDS011;90;48.810;9.120;2022-08-23T09:35:17;5.83;;;5.53;;
209;SDS011;90;48.810;9.120;2022-08-23T09:37:51;6.70;;;6.10;;
209;SDS011;90;48.810;9.120;2022-08-23T09:40:28;8.20;;;5.70;;
209;SDS011;90;48.810;9.120;2022-08-23T09:43:02;6.17;;;5.87;;
209;SDS011;90;48.810;9.120;2022-08-23T09:45:33;6.87;;;6.40;;
209;SDS011;90;48.810;9.120;2022-08-23T09:48:01;9.40;;;6.73;;
209;SDS011;90;48.810;9.120;2022-08-23T09:50:31;6.07;;;5.77;;
209;SDS011;90;48.810;9.120;2022-08-23T09:53:04;6.60;;;6.13;;
209;SDS011;90;48.810;9.120;2022-08-23T09:55:34;6.43;;;6.07;;
209;SDS011;90;48.810;9.120;2022-08-23T09:58:05;6.87;;;6.47;;
209;SDS011;90;48.810;9.120;2022-08-23T10:00:43;6.60;;;5.83;;
209;SDS011;90;48.810;9.120;2022-08-23T10:03:18;6.10;;;5.80;;
209;SDS011;90;48.810;9.120;2022-08-23T10:05:51;6.23;;;5.90;;
209;SDS011;90;48.810;9.120;2022-08-23T10:08:20;6.43;;;6.03;;
209;SDS011;90;48.810;9.120;2022-08-23T10:10:50;10.40;;;6.23;;
209;SDS011;90;48.810;9.120;2022-08-23T10:13:19;6.07;;;5.77;;
209;SDS011;90;48.810;9.120;2022-08-23T10:15:51;6.13;;;5.80;;
209;SDS011;90;48.810;9.120;2022-08-23T10:18:33;6.30;;;6.00;;
209;SDS011;90;48.810;9.120;2022-08-23T10:21:14;6.13;;;5.60;;
209;SDS011;90;48.810;9.120;2022-08-23T10:23:47;5.60;;;5.30;;
209;SDS011;90;48.810;9.120;2022-08-23T10:26:23;6.07;;;5.70;;
209;SDS011;90;48.810;9.120;2022-08-23T10:28:54;6.53;;;6.03;;
209;SDS011;90;48.810;9.120;2022-08-23T10:31:46;8.30;;;6.20;;
209;SDS011;90;48.810;9.120;2022-08-23T10:37:20;6.90;;;5.97;;
209;SDS011;90;48.810;9.120;2022-08-23T10:39:57;6.53;;;6.10;;
209;SDS011;90;48.810;9.120;2022-08-23T10:42:31;5.97;;;5.67;;
209;SDS011;90;48.810;9.120;2022-08-23T10:45:07;6.87;;;6.47;;
209;SDS011;90;48.810;9.120;2022-08-23T10:47:46;5.80;;;5.50;;
209;SDS011;90;48.810;9.120;2022-08-23T10:50:23;5.70;;;5.40;;
209;SDS011;90;48.810;9.120;2022-08-23T10:52:55;5.80;;;5.50;;
209;SDS011;90;48.810;9.120;2022-08-23T10:55:28;5.93;;;5.63;;
209;SDS011;90;48.810;9.120;2022-08-23T10:58:15;8.40;;;5.70;;
209;SDS011;90;48.810;9.120;2022-08-23T11:00:46;6.33;;;5.50;;
209;SDS011;90;48.810;9.120;2022-08-23T11:03:17;5.97;;;5.10;;
209;SDS011;90;48.810;9.120;2022-08-23T11:09:08;6.23;;;5.90;;
209;SDS011;90;48.810;9.120;2022-08-23T11:12:02;5.33;;;5.03;;
209;SDS011;90;48.810;9.120;2022-08-23T11:14:39;6.83;;;6.43;;
209;SDS011;90;48.810;9.120;2022-08-23T11:17:10;5.93;;;5.63;;
209;SDS011;90;48.810;9.120;2022-08-23T11:19:51;6.03;;;5.40;;
209;SDS011;90;48.810;9.120;2022-08-23T11:22:21;5.90;;;5.60;;
209;SDS011;90;48.810;9.120;2022-08-23T11:24:55;6.40;;;6.00;;
209;SDS011;90;48.810;9.120;2022-08-23T11:27:27;9.10;;;6.20;;
209;SDS011;90;48.810;9.120;2022-08-23T11:33:12;6.50;;;5.40;;
209;SDS011;90;48.810;9.120;2022-08-23T11:35:47;5.50;;;5.20;;
209;SDS011;90;48.810;9.120;2022-08-23T11:38:16;5.07;;;4.70;;
209;SDS011;90;48.810;9.120;2022-08-23T11:41:16;7.93;;;5.90;;
209;SDS011;90;48.810;9.120;2022-08-23T11:43:49;5.73;;;5.43;;
209;SDS011;90;48.810;9.120;2022-08-23T11:46:55;5.63;;;5.33;;
209;SDS011;90;48.810;9.120;2022-08-23T11:49:41;6.10;;;5.80;;
209;SDS011;90;48.810;9.120;2022-08-23T11:52:27;8.83;;;5.53;;
209;SDS011;90;48.810;9.120;2022-08-23T11:55:20;6.75;;;5.50;;
209;SDS011;90;48.810;9.120;2022-08-23T11:58:03;5.97;;;5.67;;
209;SDS011;90;48.810;9.120;2022-08-23T12:00:53;6.50;;;6.10;;
209;SDS011;90;48.810;9.120;2022-08-23T12:03:41;6.03;;;5.73;;
209;SDS011;90;48.810;9.120;2022-08-23T12:06:46;6.00;;;5.70;;
209;SDS011;90;48.810;9.120;2022-08-23T12:12:27;6.70;;;6.30;;
209;SDS011;90;48.810;9.120;2022-08-23T12:14:59;6.47;;;6.07;;
209;SDS011;90;48.810;9.120;2022-08-23T12:20:24;6.17;;;5.87;;
209;SDS011;90;48.810;9.120;2022-08-23T12:22:59;6.23;;;5.93;;
209;SDS011;90;48.810;9.120;2022-08-23T12:25:31;6.33;;;5.73;;
209;SDS011;90;48.810;9.120;2022-08-23T12:28:02;6.57;;;6.00;;
209;SDS011;90;48.810;9.120;2022-08-23T12:30:39;7.57;;;5.80;;
209;SDS011;90;48.810;9.120;2022-08-23T12:36:08;6.43;;;6.03;;
209;SDS011;90;48.810;9.120;2022-08-23T12:38:47;7.17;;;6.50;;
209;SDS011;90;48.810;9.120;2022-08-23T12:41:22;6.43;;;6.07;;
209;SDS011;90;48.810;9.120;2022-08-23T12:43:56;7.00;;;6.23;;
209;SDS011;90;48.810;9.120;2022-08-23T12:46:33;6.60;;;6.20;;
209;SDS011;90;48.810;9.120;2022-08-23T12:49:03;6.43;;;6.03;;
209;SDS011;90;48.810;9.120;2022-08-23T12:51:31;6.10;;;5.80;;
209;SDS011;90;48.810;9.120;2022-08-23T12:54:12;6.10;;;5.83;;
209;SDS011;90;48.810;9.120;2022-08-23T12:56:43;6.10;;;5.80;;
209;SDS011;90;48.810;9.120;2022-08-23T12:59:23;6.60;;;6.20;;
209;SDS011;90;48.810;9.120;2022-08-23T13:02:00;6.13;;;5.83;;
209;SDS011;90;48.810;9.120;2022-08-23T13:04:30;6.17;;;5.87;;
209;SDS011;90;48.810;9.120;2022-08-23T13:07:00;5.50;;;5.20;;
209;SDS011;90;48.810;9.120;2022-08-23T13:09:31;7.87;;;6.40;;
209;SDS011;90;48.810;9.120;2022-08-23T13:12:01;6.80;;;6.40;;
209;SDS011;90;48.810;9.120;2022-08-23T13:14:33;5.70;;;5.40;;
209;SDS011;90;48.810;9.120;2022-08-23T13:20:10;6.53;;;6.13;;
209;SDS011;90;48.810;9.120;2022-08-23T13:22:57;5.80;;;5.50;;
209;SDS011;90;48.810;9.120;2022-08-23T13:25:29;5.87;;;5.50;;
209;SDS011;90;48.810;9.120;2022-08-23T13:28:03;6.17;;;5.90;;
209;SDS011;90;48.810;9.120;2022-08-23T13:30:32;8.13;;;5.97;;
209;SDS011;90;48.810;9.120;2022-08-23T13:33:18;5.90;;;5.60;;
209;SDS011;90;48.810;9.120;2022-08-23T13:35:47;5.70;;;5.40;;
209;SDS011;90;48.810;9.120;2022-08-23T13:38:20;8.37;;;6.10;;
209;SDS011;90;48.810;9.120;2022-08-23T13:40:54;9.87;;;6.00;;
209;SDS011;90;48.810;9.120;2022-08-23T13:43:26;6.50;;;6.00;;
209;SDS011;90;48.810;9.120;2022-08-23T13:45:58;6.63;;;6.23;;
209;SDS011;90;48.810;9.120;2022-08-23T13:48:35;7.30;;;5.90;;
209;SDS011;90;48.810;9.120;2022-08-23T13:51:25;5.90;;;5.60;;
209;SDS011;90;48.810;9.120;2022-08-23T13:53:55;6.33;;;5.97;;
209;SDS011;90;48.810;9.120;2022-08-23T13:56:24;6.03;;;5.73;;
209;SDS011;90;48.810;9.120;2022-08-23T13:58:53;6.60;;;6.17;;
209;SDS011;90;48.810;9.120;2022-08-23T14:01:22;6.20;;;5.53;;
209;SDS011;90;48.810;9.120;2022-08-23T14:03:54;5.73;;;5.43;;
209;SDS011;90;48.810;9.120;2022-08-23T14:06:21;7.77;;;5.73;;
209;SDS011;90;48.810;9.120;2022-08-23T14:08:49;6.27;;;5.93;;
209;SDS011;90;48.810;9.120;2022-08-23T14:11:16;6.77;;;6.00;;
209;SDS011;90;48.810;9.120;2022-08-23T14:13:45;5.80;;;5.27;;
209;SDS011;90;48.810;9.120;2022-08-23T14:16:15;5.60;;;5.30;;
209;SDS011;90;48.810;9.120;2022-08-23T14:18:46;6.20;;;5.87;;
209;SDS011;90;48.810;9.120;2022-08-23T14:21:14;5.50;;;5.20;;
209;SDS011;90;48.810;9.120;2022-08-23T14:23:41;6.80;;;5.30;;
209;SDS011;90;48.810;9.120;2022-08-23T14:26:08;6.23;;;5.90;;
209;SDS011;90;48.810;9.120;2022-08-23T14:28:41;6.43;;;6.03;;
209;SDS011;90;48.810;9.120;2022-08-23T14:31:09;5.22;;;4.70;;
209;SDS011;90;48.810;9.120;2022-08-23T14:33:36;6.40;;;6.03;;
209;SDS011;90;48.810;9.120;2022-08-23T14:36:05;5.70;;;5.40;;
209;SDS011;90;48.810;9.120;2022-08-23T14:38:40;6.03;;;5.77;;
209;SDS011;90;48.810;9.120;2022-08-23T14:41:09;6.93;;;5.93;;
209;SDS011;90;48.810;9.120;2022-08-23T14:43:39;5.63;;;5.33;;
209;SDS011;90;48.810;9.120;2022-08-23T14:46:07;7.37;;;5.30;;
209;SDS011;90;48.810;9.120;2022-08-23T14:48:34;5.50;;;5.20;;
209;SDS011;90;48.810;9.120;2022-08-23T14:51:02;7.38;;;5.80;;
209;SDS011;90;48.810;9.120;2022-08-23T14:53:30;5.73;;;5.43;;
209;SDS011;90;48.810;9.120;2022-08-23T14:56:03;5.70;;;5.40;;
209;SDS011;90;48.810;9.120;2022-08-23T14:58:30;6.13;;;5.83;;
209;SDS011;90;48.810;9.120;2022-08-23T15:00:59;6.93;;;5.77;;
209;SDS011;90;48.810;9.120;2022-08-23T15:03:27;14.13;;;6.37;;
209;SDS011;90;48.810;9.120;2022-08-23T15:05:54;7.90;;;5.90;;
209;SDS011;90;48.810;9.120;2022-08-23T15:08:30;6.27;;;5.93;;
209;SDS011;90;48.810;9.120;2022-08-23T15:11:08;6.53;;;6.13;;
209;SDS011;90;48.810;9.120;2022-08-23T15:13:37;9.60;;;6.20;;
209;SDS011;90;48.810;9.120;2022-08-23T15:16:05;6.30;;;5.70;;
209;SDS011;90;48.810;9.120;2022-08-23T15:18:36;5.90;;;5.60;;
209;SDS011;90;48.810;9.120;2022-08-23T15:21:04;6.20;;;5.90;;
209;SDS011;90;48.810;9.120;2022-08-23T15:23:34;5.97;;;5.67;;
209;SDS011;90;48.810;9.120;2022-08-23T15:26:01;6.40;;;5.73;;
209;SDS011;90;48.810;9.120;2022-08-23T15:28:29;6.63;;;6.10;;
209;SDS011;90;48.810;9.120;2022-08-23T15:30:57;6.13;;;5.83;;
209;SDS011;90;48.810;9.120;2022-08-23T15:33:27;6.80;;;6.40;;
209;SDS011;90;48.810;9.120;2022-08-23T15:35:57;6.50;;;6.10;;
209;SDS011;90;48.810;9.120;2022-08-23T15:38:26;9.73;;;6.00;;
209;SDS011;90;48.810;9.120;2022-08-23T15:40:53;6.17;;;5.87;;
209;SDS011;90;48.810;9.120;2022-08-23T15:43:22;5.87;;;5.57;;
209;SDS011;90;48.810;9.120;2022-08-23T15:45:51;6.10;;;5.80;;
209;SDS011;90;48.810;9.120;2022-08-23T15:48:19;8.17;;;5.80;;
209;SDS011;90;48.810;9.120;2022-08-23T15:50:49;6.03;;;5.70;;
209;SDS011;90;48.810;9.120;2022-08-23T15:53:16;7.55;;;5.68;;
209;SDS011;90;48.810;9.120;2022-08-23T15:55:45;5.53;;;5.23;;
209;SDS011;90;48.810;9.120;2022-08-23T15:58:13;6.40;;;6.00;;
209;SDS011;90;48.810;9.120;2022-08-23T16:00:44;7.10;;;6.03;;
209;SDS011;90;48.810;9.120;2022-08-23T16:03:13;9.63;;;6.07;;
209;SDS011;90;48.810;9.120;2022-08-23T16:05:41;7.03;;;5.50;;
209;SDS011;90;48.810;9.120;2022-08-23T16:08:11;6.30;;;5.50;;
209;SDS011;90;48.810;9.120;2022-08-23T16:10:43;6.07;;;5.77;;
209;SDS011;90;48.810;9.120;2022-08-23T16:13:10;6.10;;;5.80;;
209;SDS011;90;48.810;9.120;2022-08-23T16:15:38;6.47;;;6.03;;
209;SDS011;90;48.810;9.120;2022-08-23T16:18:05;5.70;;;5.40;;
209;SDS011;90;48.810;9.120;2022-08-23T16:20:34;9.40;;;6.10;;
209;SDS011;90;48.810;9.120;2022-08-23T16:23:02;6.10;;;5.80;;
209;SDS011;90;48.810;9.120;2022-08-23T16:25:31;6.87;;;5.73;;
209;SDS011;90;48.810;9.120;2022-08-23T16:27:58;6.93;;;6.17;;
209;SDS011;90;48.810;9.120;2022-08-23T16:30:26;6.20;;;5.90;;
209;SDS011;90;48.810;9.120;2022-08-23T16:32:54;5.93;;;5.63;;
209;SDS011;90;48.810;9.120;2022-08-23T16:35:21;8.60;;;6.70;;
209;SDS011;90;48.810;9.120;2022-08-23T16:37:50;6.03;;;5.80;;
209;SDS011;90;48.810;9.120;2022-08-23T16:40:18;6.17;;;5.87;;
209;SDS011;90;48.810;9.120;2022-08-23T16:42:46;8.27;;;5.90;;
209;SDS011;90;48.810;9.120;2022-08-23T16:45:13;6.80;;;6.40;;